MST,Max TemperatureF,Mean TemperatureF,Min TemperatureF,Max Dew PointF,MeanDew PointF,Min DewpointF,Max Humidity, Mean Humidity, Min Humidity, Max Sea Level PressureIn, Mean Sea Level PressureIn, Min Sea Level PressureIn, Max VisibilityMiles, Mean VisibilityMiles, Min VisibilityMiles, Max Wind SpeedMPH, Mean Wind SpeedMPH, Max Gust SpeedMPH,PrecipitationIn, CloudCover, Events, WindDirDegrees
2013-11-1,52,43,33,29,26,21,82,57,32,30.19,30.12,29.99,10,10,10,24,10,27,0.00,1,,289
2013-11-2,55,41,26,31,26,22,81,58,35,30.16,29.92,29.65,10,10,10,17,6,20,0.00,0,,121
2013-11-3,47,36,24,27,18,8,78,51,24,29.94,29.69,29.55,10,10,10,28,14,35,0.00,2,,296
2013-11-4,38,29,20,15,11,5,74,51,27,30.07,30.00,29.93,10,10,10,21,8,25,0.00,1,,273
2013-11-5,37,27,17,17,10,1,84,54,23,30.22,30.15,30.02,10,10,10,28,12,33,0.00,0,,270
2013-11-6,50,38,26,14,14,13,57,52,47,30.33,30.22,30.13,10,10,10,30,15,38,0.00,1,,264
2013-11-7,51,37,23,30,27,18,74,60,45,30.35,30.15,29.81,10,10,10,16,6,19,0.00,0,,210
2013-11-8,57,46,34,30,23,15,64,42,19,30.02,29.84,29.68,10,10,10,31,13,37,0.00,2,,294
2013-11-9,52,41,29,25,23,21,72,51,30,30.23,30.13,29.98,10,10,10,14,6,14,0.00,1,,331
2013-11-10,59,43,26,29,26,22,78,55,31,30.28,30.20,30.12,10,10,10,15,6,16,0.00,0,,232
2013-11-11,52,41,29,29,26,23,92,65,38,30.59,30.33,30.13,10,10,10,17,9,22,0.00,0,,349
2013-11-12,51,36,21,31,26,20,96,71,46,30.63,30.52,30.38,10,10,10,10,3,10,T,0,,360
2013-11-13,47,38,28,32,29,25,85,69,53,30.35,30.20,30.09,10,10,10,24,7,30,0.00,3,,352
2013-11-14,50,40,29,28,25,21,78,58,37,30.14,29.93,29.68,10,10,10,20,7,23,0.00,0,,236
2013-11-15,49,38,27,24,17,10,78,54,29,29.68,29.56,29.41,10,10,10,37,12,46,0.00,1,,276
2013-11-16,46,36,26,18,14,8,63,44,25,29.52,29.37,29.27,10,10,10,36,12,43,0.00,0,,241
2013-11-17,43,32,20,14,8,4,57,39,20,30.09,29.91,29.57,10,10,10,32,10,39,0.00,0,,292
2013-11-18,55,40,24,18,14,11,60,40,19,30.14,30.04,29.87,10,10,10,17,6,19,0.00,0,,235
2013-11-19,52,39,26,26,23,19,75,55,35,29.82,29.76,29.68,10,10,10,24,10,31,0.00,0,,280
2013-11-20,52,33,14,25,18,10,77,55,33,30.23,29.93,29.68,10,8,2,33,11,43,0.00,4,Snow,82
2013-11-21,22,14,5,12,9,2,92,75,57,30.75,30.43,30.16,10,6,1,12,4,15,T,5,Snow,44
2013-11-22,24,12,-1,9,4,-5,91,71,50,30.84,30.69,30.48,10,8,1,8,3,9,T,2,,316
2013-11-23,27,15,3,14,7,0,87,71,55,30.82,30.67,30.43,10,10,5,8,2,10,0.00,0,,63
2013-11-24,31,18,4,15,10,2,96,75,53,30.40,30.31,30.21,10,10,9,8,2,9,0.00,0,,79
2013-11-25,40,28,16,22,16,11,80,64,48,30.47,30.38,30.29,10,10,10,9,4,10,0.00,2,,34
2013-11-26,41,29,17,23,18,14,81,65,48,30.50,30.41,30.29,10,10,10,12,4,12,0.00,0,,348
2013-11-27,39,30,21,25,20,17,88,71,54,30.26,30.20,30.11,10,10,10,10,4,12,0.00,0,,12
2013-11-28,39,30,20,25,22,17,88,71,54,30.26,30.20,30.14,10,10,8,9,4,9,0.00,0,,320
2013-11-29,48,35,21,25,22,18,88,63,37,30.26,30.20,30.14,10,10,10,14,4,15,0.00,0,,10
2013-11-30,46,34,21,24,21,17,75,56,37,30.26,30.19,30.10,10,10,10,14,5,15,0.00,2,,281